Amarillo, TX

4:37 AM CDT on May 25, 2015 (GMT -0500)
Amarillo International | | Change Station
CLOSE
Current Station
Airport
Location: Amarillo,
Elevation: 3606 ft
Nearby Weather Stations

Elev 3606 ft 35.22 °N, 101.72 °W | Updated 44 minutes ago

Clear
Clear
53 °F
Feels Like 53 °F
N
8
Wind Variable Wind from SW

Today
High -- | Low -- °F
--% Chance of Precip.
Yesterday
High -- | Low -- °F
Precip. -- in
6:37 AM 8:51 PM
Waxing Crescent, 47% visible
Pressure 29.73 in
Visibility 10.0 miles
Clouds Clear
Dew Point 45 °F
Humidity 74%
Rainfall 0.00 in
Snow Depth Not available.
UV 0 out of 12
Pollen 6.50 out of 12
Air Quality Not available.
Flu Activity Sporadic
METAR KAMA 250853Z AUTO 23007KT 10SM CLR 12/07 A2984 RMK AO2 SLP065 T01170072 53006

More Conditions Fewer Conditions

Pressure 29.73 in
Visibility 10.0 miles
Clouds Clear
Dew Point 45 °F
Humidity 74%
Rainfall 0.00 in
Snow Depth Not available.
UV 0 out of 12
Pollen 6.50 out of 12
Air Quality Not available.
Flu Activity Sporadic
METAR KAMA 250853Z AUTO 23007KT 10SM CLR 12/07 A2984 RMK AO2 SLP065 T01170072 53006

More Conditions Fewer Conditions

10-Day Weather Forecast

Almanac

Astronomy

May. 25, 2015 Rise Set
Actual Time
Civil Twilight
Nautical Twilight
Astronomical Twilight
Moon
Length of Visible Light
Length of Day
Tomorrow will be .
, % of the Moon is Illuminated

Today's Extremes

State Highs State Lows

Community

WunderPhotos

Upload Photos

1,823,960 photos uploaded!

WunderBlogs® & News

Nearby

Air Quality

  Air Quality AQ Index Pollutant
Not available.

Snow Depth

Station Depth Elevation

Earthquake Activity

City Distance Mag. Time & Date
Minimum magnitude displayed is 2.5.

Coastal Water Temperatures

Place Temperature

Stations

Nearby Weather Stations

Station Location Temp. Windchill Dew Point Humidity Wind Precip. Elev Updated Type